Time;durP1;ratioP1;P1;durP2;ratioP2;P2;SDS_P1;SDS_P2;PMS_P1;PMS_P2;Temp;Humidity;BMP_temperature;BMP_pressure;BME280_temperature;BME280_humidity;BME280_pressure;Samples;Min_cycle;Max_cycle;Signal;HPM_P1;HPM_P2
2022/09/23 00:01:19;;;;;;;0.10;0.10;;;;;;;12.05;53.68;98324.47;8416832;28;20291;-74
2022/09/23 00:05:22;;;;;;;0.10;0.10;;;;;;;12.05;53.71;98324.47;8416583;28;20241;-74
2022/09/23 00:09:24;;;;;;;0.10;0.10;;;;;;;12.11;54.03;98313.81;8416688;28;20537;-73
2022/09/23 00:13:28;;;;;;;0.10;0.10;;;;;;;12.08;53.55;98319.13;8416346;28;20242;-74
2022/09/23 00:17:31;;;;;;;0.10;0.10;;;;;;;12.07;53.80;98324.38;8416406;28;20277;-74
2022/09/23 00:21:34;;;;;;;0.10;0.10;;;;;;;12.05;53.79;98326.22;8416153;28;20242;-74
2022/09/23 00:25:37;;;;;;;0.00;0.00;;;;;;;11.95;53.73;98314.56;8416005;28;20235;-73
2022/09/23 00:29:41;;;;;;;0.10;0.10;;;;;;;11.81;53.95;98315.97;8415813;28;20246;-73
2022/09/23 00:33:44;;;;;;;0.07;0.07;;;;;;;11.77;54.45;98311.84;8415934;28;20238;-73
2022/09/23 00:37:47;;;;;;;0.00;0.00;;;;;;;11.90;54.76;98307.00;8415269;28;20226;-72
2022/09/23 00:41:50;;;;;;;0.00;0.00;;;;;;;11.95;54.28;98305.03;8415208;28;20234;-73
2022/09/23 00:45:54;;;;;;;0.00;0.00;;;;;;;11.86;54.24;98301.06;8414973;28;20430;-73
2022/09/23 00:50:03;;;;;;;0.10;0.10;;;;;;;11.91;54.16;98299.13;8415333;28;20238;-73
2022/09/23 00:54:06;;;;;;;0.10;0.10;;;;;;;11.76;54.58;98296.34;8415012;28;20231;-73
2022/09/23 00:58:11;;;;;;;0.10;0.10;;;;;;;11.78;54.76;98297.09;8414167;28;20229;-73
2022/09/23 01:02:16;;;;;;;0.00;0.00;;;;;;;11.80;54.46;98288.34;8414948;28;20231;-73
2022/09/23 01:06:20;;;;;;;0.10;0.10;;;;;;;11.81;54.29;98281.41;8414764;28;20247;-73
2022/09/23 01:10:23;;;;;;;0.00;0.00;;;;;;;11.74;55.04;98296.41;8414655;28;20235;-73
2022/09/23 01:14:37;;;;;;;0.10;0.10;;;;;;;11.76;55.40;98291.97;8414476;28;20243;-73
2022/09/23 01:18:46;;;;;;;0.10;0.10;;;;;;;11.78;54.68;98295.34;8414519;28;20237;-73
2022/09/23 01:22:55;;;;;;;0.10;0.10;;;;;;;11.73;54.27;98290.38;8413885;28;20246;-72
2022/09/23 01:27:07;;;;;;;0.10;0.10;;;;;;;11.66;53.97;98282.94;8413897;28;20487;-73
2022/09/23 01:31:14;;;;;;;0.10;0.10;;;;;;;11.64;54.26;98285.59;8413794;28;20226;-73
2022/09/23 01:35:24;;;;;;;0.10;0.10;;;;;;;11.58;54.05;98293.63;8414119;28;20427;-73
2022/09/23 01:39:34;;;;;;;0.10;0.10;;;;;;;11.55;54.04;98284.22;8414090;28;20246;-73
2022/09/23 01:43:42;;;;;;;0.10;0.10;;;;;;;11.46;54.09;98276.00;8413793;28;20231;-73
2022/09/23 01:47:52;;;;;;;0.10;0.10;;;;;;;11.49;54.44;98274.13;8413559;28;20282;-73
2022/09/23 01:52:00;;;;;;;0.10;0.10;;;;;;;11.54;54.56;98276.53;8406032;28;20238;-73
2022/09/23 01:56:06;;;;;;;0.10;0.10;;;;;;;11.53;54.59;98270.47;8413652;28;20234;-73
2022/09/23 02:00:14;;;;;;;0.00;0.00;;;;;;;11.44;54.46;98264.84;8413620;28;20508;-73
2022/09/23 02:04:22;;;;;;;0.00;0.00;;;;;;;11.47;54.31;98260.38;8413552;28;20276;-73
2022/09/23 02:08:29;;;;;;;0.10;0.10;;;;;;;11.27;54.42;98266.44;8413352;28;20231;-73
2022/09/23 02:12:34;;;;;;;0.10;0.10;;;;;;;11.29;55.06;98262.03;8419582;28;20226;-73
2022/09/23 02:16:39;;;;;;;0.00;0.00;;;;;;;11.34;54.78;98256.63;8420084;28;20238;-73
2022/09/23 02:20:43;;;;;;;0.10;0.10;;;;;;;11.35;54.63;98259.16;8420060;28;20288;-73
2022/09/23 02:24:46;;;;;;;0.10;0.10;;;;;;;11.33;54.75;98266.16;8419952;28;20234;-74
2022/09/23 02:28:54;;;;;;;0.10;0.10;;;;;;;11.38;54.42;98259.94;8419050;28;20231;-73
2022/09/23 02:33:03;;;;;;;0.10;0.10;;;;;;;11.29;54.34;98261.16;8419316;28;20242;-73
2022/09/23 02:37:12;;;;;;;0.10;0.10;;;;;;;11.22;54.07;98254.56;8419468;28;20234;-73
2022/09/23 02:41:17;;;;;;;0.10;0.10;;;;;;;11.24;54.31;98250.16;8419171;28;20227;-73
2022/09/23 02:45:20;;;;;;;0.10;0.10;;;;;;;11.18;53.74;98255.59;8419044;28;20255;-73
2022/09/23 02:49:24;;;;;;;0.10;0.10;;;;;;;11.11;53.63;98260.19;8418967;28;20239;-73
2022/09/23 02:53:29;;;;;;;0.10;0.10;;;;;;;11.03;54.21;98265.69;8418865;28;20300;-73
2022/09/23 02:57:32;;;;;;;0.10;0.10;;;;;;;11.08;54.10;98266.34;8418782;28;20230;-73
2022/09/23 03:01:39;;;;;;;0.10;0.10;;;;;;;11.04;53.82;98263.94;8418569;28;20231;-73
2022/09/23 03:05:47;;;;;;;0.10;0.10;;;;;;;10.95;53.58;98258.25;8418521;28;20243;-73
2022/09/23 03:09:55;;;;;;;0.10;0.10;;;;;;;10.85;53.39;98254.34;8418071;28;20230;-73
2022/09/23 03:14:07;;;;;;;0.10;0.10;;;;;;;10.92;53.70;98252.34;8418185;28;20234;-73
2022/09/23 03:18:15;;;;;;;0.10;0.10;;;;;;;10.85;53.66;98253.50;8417981;28;20227;-74
2022/09/23 03:22:23;;;;;;;0.10;0.10;;;;;;;10.85;53.65;98249.16;8417160;28;20539;-73
2022/09/23 03:26:29;;;;;;;0.10;0.10;;;;;;;10.84;53.87;98244.88;8417575;28;20235;-73
2022/09/23 03:30:34;;;;;;;0.00;0.00;;;;;;;10.78;54.01;98245.13;8417773;28;20239;-73
2022/09/23 03:34:38;;;;;;;0.10;0.10;;;;;;;10.68;54.03;98238.63;8417529;28;20238;-73
2022/09/23 03:38:43;;;;;;;0.10;0.10;;;;;;;10.71;53.60;98228.16;8417312;28;20238;-73
2022/09/23 03:42:47;;;;;;;0.10;0.10;;;;;;;10.69;53.55;98233.38;8417407;28;20522;-73
2022/09/23 03:46:50;;;;;;;0.10;0.10;;;;;;;10.61;53.74;98226.84;8416540;28;20231;-73
2022/09/23 03:50:53;;;;;;;0.00;0.00;;;;;;;10.61;54.03;98219.09;8417151;28;20239;-73
2022/09/23 03:54:56;;;;;;;0.10;0.10;;;;;;;10.66;53.53;98224.91;8417054;28;20234;-73
2022/09/23 03:59:00;;;;;;;0.10;0.10;;;;;;;10.62;53.94;98225.94;8416964;28;20234;-73
2022/09/23 04:03:03;;;;;;;0.10;0.10;;;;;;;10.61;54.05;98219.91;8416614;28;20239;-73
2022/09/23 04:07:13;;;;;;;0.10;0.10;;;;;;;10.56;54.17;98222.66;8416625;28;20241;-73
2022/09/23 04:11:16;;;;;;;0.10;0.10;;;;;;;10.54;54.14;98215.88;8416389;28;20288;-73
2022/09/23 04:15:20;;;;;;;0.10;0.10;;;;;;;10.48;54.11;98213.53;8416362;28;20239;-73
2022/09/23 04:19:23;;;;;;;0.10;0.10;;;;;;;10.53;54.14;98204.69;8416295;28;20242;-73
2022/09/23 04:23:27;;;;;;;0.10;0.10;;;;;;;10.47;54.37;98201.50;8415824;28;20234;-73
2022/09/23 04:27:29;;;;;;;0.10;0.10;;;;;;;10.47;54.54;98204.06;8415830;28;20238;-73
2022/09/23 04:31:40;;;;;;;0.10;0.10;;;;;;;10.45;54.21;98205.88;8415670;28;20241;-73
2022/09/23 04:35:43;;;;;;;0.10;0.10;;;;;;;10.42;54.44;98204.28;8415241;28;20234;-74
2022/09/23 04:39:46;;;;;;;0.10;0.10;;;;;;;10.40;54.59;98205.25;8415487;28;20522;-73
2022/09/23 04:43:49;;;;;;;0.10;0.10;;;;;;;10.36;54.41;98200.19;8414969;28;20231;-73
2022/09/23 04:47:53;;;;;;;0.10;0.10;;;;;;;10.37;54.61;98194.09;8414781;28;20648;-74
2022/09/23 04:51:56;;;;;;;0.10;0.10;;;;;;;10.38;55.06;98192.34;8414987;28;20460;-75
2022/09/23 04:56:01;;;;;;;0.10;0.10;;;;;;;10.36;55.09;98191.59;8414745;28;20246;-75
2022/09/23 05:00:05;;;;;;;0.10;0.10;;;;;;;10.34;54.93;98198.56;8414850;28;20230;-76
2022/09/23 05:04:12;;;;;;;0.10;0.10;;;;;;;10.28;54.67;98199.63;8414498;28;20219;-75
2022/09/23 05:08:15;;;;;;;0.10;0.10;;;;;;;10.29;54.64;98206.47;8414550;28;20413;-75
2022/09/23 05:12:18;;;;;;;0.10;0.10;;;;;;;10.26;54.98;98206.59;8414531;28;20413;-75
2022/09/23 05:16:22;;;;;;;0.10;0.10;;;;;;;10.46;54.92;98205.00;8414224;28;20242;-74
2022/09/23 05:20:26;;;;;;;0.10;0.10;;;;;;;10.84;53.70;98202.59;8414063;28;20238;-75
2022/09/23 05:24:29;;;;;;;0.10;0.10;;;;;;;11.09;53.30;98207.56;8414154;28;20529;-74
2022/09/23 05:28:33;;;;;;;0.10;0.10;;;;;;;11.17;53.68;98202.06;8413906;28;20438;-74
2022/09/23 05:32:36;;;;;;;0.10;0.10;;;;;;;11.09;54.22;98202.41;8414001;28;20230;-74
2022/09/23 05:36:48;;;;;;;0.10;0.10;;;;;;;11.15;54.77;98204.72;8413818;28;20526;-76
2022/09/23 05:40:56;;;;;;;0.10;0.10;;;;;;;11.03;54.75;98211.28;8413116;28;20233;-74
2022/09/23 05:44:58;;;;;;;0.10;0.10;;;;;;;11.22;54.70;98208.75;8413068;28;20238;-74
2022/09/23 05:49:02;;;;;;;0.10;0.10;;;;;;;11.37;54.62;98215.00;8413396;28;20599;-75
2022/09/23 05:53:07;;;;;;;0.10;0.10;;;;;;;11.59;54.07;98216.66;8413577;28;20333;-74
2022/09/23 05:57:09;;;;;;;0.10;0.10;;;;;;;11.86;53.29;98215.44;8413714;28;20413;-75
2022/09/23 06:01:14;;;;;;;0.10;0.10;;;;;;;12.14;53.05;98214.16;8413471;28;20238;-76
2022/09/23 06:05:17;;;;;;;0.10;0.10;;;;;;;12.20;52.77;98224.25;8413028;28;20425;-75
2022/09/23 06:09:21;;;;;;;0.10;0.10;;;;;;;12.15;52.87;98218.47;8413232;28;20238;-75
2022/09/23 06:13:24;;;;;;;0.10;0.10;;;;;;;12.23;53.13;98216.34;8413050;28;20239;-74
2022/09/23 06:17:27;;;;;;;0.10;0.10;;;;;;;12.40;57.35;98212.13;8413045;28;20491;-76
2022/09/23 06:21:30;;;;;;;0.10;0.10;;;;;;;12.60;52.97;98216.34;8412930;28;20238;-75
2022/09/23 06:25:34;;;;;;;0.00;0.00;;;;;;;12.59;52.76;98214.66;8412696;28;20281;-75
2022/09/23 06:29:37;;;;;;;0.10;0.10;;;;;;;12.56;53.22;98217.41;8413160;28;20230;-75
2022/09/23 06:33:41;;;;;;;0.10;0.10;;;;;;;12.51;52.94;98221.06;8412832;28;20231;-75
2022/09/23 06:37:44;;;;;;;0.10;0.10;;;;;;;12.35;54.20;98219.28;8413032;28;20234;-75
2022/09/23 06:41:48;;;;;;;0.10;0.10;;;;;;;12.58;53.54;98219.00;8412296;28;20230;-72
2022/09/23 06:45:52;;;;;;;0.10;0.10;;;;;;;12.58;53.53;98220.75;8412419;28;20529;-81
2022/09/23 06:49:55;;;;;;;0.00;0.00;;;;;;;12.50;60.81;98224.56;8412609;28;20534;-75
2022/09/23 06:53:58;;;;;;;0.10;0.10;;;;;;;12.65;53.78;98216.97;8412391;28;20250;-76
2022/09/23 06:58:02;;;;;;;0.10;0.10;;;;;;;12.43;55.10;98211.94;8415766;28;20537;-75
2022/09/23 07:02:05;;;;;;;0.10;0.10;;;;;;;12.69;55.22;98219.31;8418397;28;20230;-77
2022/09/23 07:06:08;;;;;;;0.10;0.10;;;;;;;12.39;54.51;98213.00;8418085;28;20230;-77
2022/09/23 07:10:12;;;;;;;0.10;0.10;;;;;;;12.74;54.81;98213.91;8418195;28;20415;-78
2022/09/23 07:14:16;;;;;;;0.10;0.10;;;;;;;12.69;55.15;98208.09;8417820;28;20516;-75
2022/09/23 07:18:22;;;;;;;0.10;0.10;;;;;;;12.60;55.45;98216.34;8418061;28;20250;-76
2022/09/23 07:22:25;;;;;;;0.10;0.10;;;;;;;12.57;56.08;98209.53;8417876;28;20242;-77
2022/09/23 07:26:29;;;;;;;0.10;0.10;;;;;;;12.85;55.74;98198.63;8417783;28;20235;-76
2022/09/23 07:30:36;;;;;;;0.00;0.00;;;;;;;13.35;54.64;98203.97;8417762;28;20227;-76
2022/09/23 07:34:39;;;;;;;0.10;0.10;;;;;;;13.45;52.93;98207.78;8417624;28;20390;-76
2022/09/23 07:38:41;;;;;;;0.10;0.10;;;;;;;13.57;53.86;98214.91;8417496;28;20265;-76
2022/09/23 07:42:47;;;;;;;0.00;0.00;;;;;;;13.25;54.54;98221.75;8416842;28;20231;-77
2022/09/23 07:46:51;;;;;;;0.00;0.00;;;;;;;13.67;54.09;98221.34;8416926;28;20242;-76
2022/09/23 07:50:54;;;;;;;0.10;0.10;;;;;;;13.74;52.55;98218.41;8417027;28;20242;-75
2022/09/23 07:54:57;;;;;;;0.10;0.10;;;;;;;13.94;52.50;98212.16;8416655;28;20238;-76
2022/09/23 07:59:00;;;;;;;0.10;0.10;;;;;;;14.65;51.06;98209.91;8416693;28;20227;-76
2022/09/23 08:03:05;;;;;;;0.10;0.10;;;;;;;14.70;51.08;98209.66;8416732;28;20294;-76
2022/09/23 08:07:08;;;;;;;0.10;0.10;;;;;;;14.63;51.53;98203.94;8416110;28;20620;-76
2022/09/23 08:11:13;;;;;;;0.00;0.00;;;;;;;15.48;49.50;98205.97;8416553;28;20222;-76
2022/09/23 08:15:17;;;;;;;0.10;0.10;;;;;;;14.92;50.49;98206.66;8416440;28;20231;-76
2022/09/23 08:19:21;;;;;;;0.00;0.00;;;;;;;15.10;49.81;98198.66;8416025;28;20233;-76
2022/09/23 08:23:24;;;;;;;0.03;0.03;;;;;;;15.93;49.50;98207.56;8416030;28;20239;-76
2022/09/23 08:27:26;;;;;;;0.00;0.00;;;;;;;16.33;48.47;98206.81;8415780;28;20246;-76
2022/09/23 08:31:29;;;;;;;0.00;0.00;;;;;;;16.41;47.51;98201.94;8415913;28;20238;-76
2022/09/23 08:35:34;;;;;;;0.00;0.00;;;;;;;17.21;45.10;98204.59;8415704;28;20447;-76
2022/09/23 08:39:36;;;;;;;0.00;0.00;;;;;;;16.97;46.05;98194.81;8415554;28;20230;-76
2022/09/23 08:43:42;;;;;;;0.00;0.00;;;;;;;17.70;44.69;98190.72;8415403;28;20239;-76
2022/09/23 08:47:49;;;;;;;0.00;0.00;;;;;;;18.19;44.01;98188.22;8415207;28;20239;-76
2022/09/23 08:51:55;;;;;;;0.00;0.00;;;;;;;18.16;43.08;98178.78;8414438;28;20215;-76
2022/09/23 08:55:59;;;;;;;0.00;0.00;;;;;;;18.57;42.65;98177.56;8414948;28;20521;-77
2022/09/23 09:00:03;;;;;;;0.00;0.00;;;;;;;18.86;43.01;98172.78;8415304;28;20230;-77
2022/09/23 09:04:15;;;;;;;0.00;0.00;;;;;;;18.56;41.04;98166.25;8414614;28;20242;-76
2022/09/23 09:08:23;;;;;;;0.00;0.00;;;;;;;18.38;41.68;98170.22;8414921;28;20227;-77
2022/09/23 09:12:31;;;;;;;0.00;0.00;;;;;;;18.40;41.20;98165.69;8414656;28;20243;-77
2022/09/23 09:16:47;;;;;;;0.00;0.00;;;;;;;18.82;40.81;98162.66;8414496;28;20591;-76
2022/09/23 09:21:11;;;;;;;0.00;0.00;;;;;;;17.55;43.28;98165.59;8413395;28;20272;-76
2022/09/23 09:25:23;;;;;;;0.00;0.00;;;;;;;18.80;40.57;98170.63;8414051;28;20230;-76
2022/09/23 09:29:28;;;;;;;0.00;0.00;;;;;;;18.71;39.85;98166.03;8414014;28;20238;-77
2022/09/23 09:33:45;;;;;;;0.00;0.00;;;;;;;18.52;40.73;98154.31;8413994;28;20304;-77
2022/09/23 09:37:48;;;;;;;0.00;0.00;;;;;;;19.13;39.95;98148.88;8413529;28;20242;-75
2022/09/23 09:41:58;;;;;;;0.10;0.10;;;;;;;19.49;38.83;98148.78;8413659;28;20230;-77
2022/09/23 09:46:09;;;;;;;0.00;0.00;;;;;;;18.52;39.56;98149.06;8413588;28;20239;-79
2022/09/23 09:50:20;;;;;;;0.00;0.00;;;;;;;18.64;39.31;98144.69;8413809;28;20534;-78
2022/09/23 09:54:25;;;;;;;0.00;0.00;;;;;;;18.55;39.36;98148.81;8413658;28;20231;-82
2022/09/23 09:58:41;;;;;;;0.00;0.00;;;;;;;19.34;40.38;98140.28;8413640;28;20422;-78
2022/09/23 10:02:44;;;;;;;0.00;0.00;;;;;;;18.81;38.52;98126.88;8413184;28;20231;-77
2022/09/23 10:07:04;;;;;;;0.00;0.00;;;;;;;19.33;38.72;98123.72;8413177;28;20294;-76
2022/09/23 10:11:14;;;;;;;0.00;0.00;;;;;;;19.27;38.16;98118.94;8412713;28;20240;-78
2022/09/23 10:15:30;;;;;;;0.00;0.00;;;;;;;19.99;36.40;98124.72;8413451;28;20230;-78
2022/09/23 10:19:35;;;;;;;0.00;0.00;;;;;;;19.35;38.41;98118.34;8413379;28;20226;-78
2022/09/23 10:23:40;;;;;;;0.00;0.00;;;;;;;19.47;36.11;98113.91;8413571;28;20242;-78
2022/09/23 10:27:44;;;;;;;0.00;0.00;;;;;;;20.14;36.34;98106.88;8413136;28;20570;-78
2022/09/23 10:31:51;;;;;;;0.00;0.00;;;;;;;20.11;35.43;98106.19;8415866;28;20227;-75
2022/09/23 10:35:56;;;;;;;0.00;0.00;;;;;;;20.79;33.54;98097.16;8419611;28;20239;-75
2022/09/23 10:49:08;;;;;;;0.00;0.00;;;;;;;20.70;33.72;98088.25;8371096;28;20251;-75
2022/09/23 10:53:17;;;;;;;0.00;0.00;;;;;;;20.57;34.07;98082.31;8385918;28;20229;-76
2022/09/23 10:57:40;;;;;;;0.00;0.00;;;;;;;20.98;33.64;98068.34;8385674;28;20253;-75
2022/09/23 11:01:50;;;;;;;0.00;0.00;;;;;;;20.88;34.57;98070.88;8385427;28;20230;-76
2022/09/23 11:06:03;;;;;;;0.00;0.00;;;;;;;20.69;33.96;98073.41;8385224;28;20540;-76
2022/09/23 11:10:28;;;;;;;0.00;0.00;;;;;;;19.81;35.17;98064.81;8385588;28;20254;-76
2022/09/23 11:15:03;;;;;;;0.00;0.00;;;;;;;19.52;35.61;98067.94;8410067;28;20289;-76
2022/09/23 11:19:31;;;;;;;0.00;0.00;;;;;;;20.06;35.03;98066.28;8418605;28;20228;-77
2022/09/23 11:23:50;;;;;;;0.00;0.00;;;;;;;19.95;35.96;98063.69;8418691;28;20427;-79
2022/09/23 11:28:17;;;;;;;0.00;0.00;;;;;;;19.43;34.49;98054.72;8410517;28;20237;-77
2022/09/23 11:32:40;;;;;;;0.00;0.00;;;;;;;19.91;33.99;98049.13;8417947;28;20248;-78
2022/09/23 11:36:44;;;;;;;0.00;0.00;;;;;;;20.26;33.94;98035.72;8419017;28;20235;-78
2022/09/23 11:40:53;;;;;;;0.00;0.00;;;;;;;20.67;33.95;98026.19;8417086;28;20232;-75
2022/09/23 11:44:59;;;;;;;0.00;0.00;;;;;;;19.84;33.99;98029.59;8416493;28;20233;-78
2022/09/23 11:49:07;;;;;;;0.00;0.00;;;;;;;20.51;33.43;98015.28;8416908;28;20233;-77
2022/09/23 11:53:15;;;;;;;0.00;0.00;;;;;;;20.11;33.37;98026.50;8416886;28;20228;-76
2022/09/23 11:57:24;;;;;;;0.00;0.00;;;;;;;20.71;32.02;98018.84;8416973;28;20224;-77
2022/09/23 12:01:32;;;;;;;0.00;0.00;;;;;;;20.94;32.45;98010.78;8416682;28;20232;-77
2022/09/23 12:05:42;;;;;;;0.00;0.00;;;;;;;20.87;33.04;97999.97;8417458;28;20284;-78
2022/09/23 12:09:55;;;;;;;0.00;0.00;;;;;;;20.77;33.06;98007.84;8417089;28;20240;-76
2022/09/23 12:14:18;;;;;;;0.00;0.00;;;;;;;21.54;32.60;98002.97;8417429;28;20220;-76
2022/09/23 12:18:37;;;;;;;0.00;0.00;;;;;;;21.64;31.75;97994.09;8417474;28;20400;-75
2022/09/23 12:22:49;;;;;;;0.00;0.00;;;;;;;21.74;31.19;97994.13;8417165;28;20242;-76
2022/09/23 12:26:55;;;;;;;0.00;0.00;;;;;;;22.11;32.16;97987.31;8415759;28;20317;-76
2022/09/23 12:31:00;;;;;;;0.00;0.00;;;;;;;22.01;30.31;97977.59;8416188;28;20250;-77
2022/09/23 12:35:03;;;;;;;0.00;0.00;;;;;;;22.10;29.61;97977.72;8415800;28;20331;-77
2022/09/23 12:39:07;;;;;;;0.00;0.00;;;;;;;22.38;30.44;97968.97;8415928;28;20241;-77
2022/09/23 12:43:17;;;;;;;0.00;0.00;;;;;;;22.46;28.98;97968.25;8415738;28;20288;-76
2022/09/23 12:47:39;;;;;;;0.00;0.00;;;;;;;22.23;28.51;97970.34;8415359;28;20235;-78
2022/09/23 12:52:14;;;;;;;0.00;0.00;;;;;;;22.24;28.04;97954.41;8416101;28;20238;-78
2022/09/23 12:56:18;;;;;;;0.00;0.00;;;;;;;22.75;28.63;97952.34;8414047;28;20218;-78
2022/09/23 13:00:23;;;;;;;0.00;0.00;;;;;;;22.90;28.63;97957.13;8415062;28;20241;-78
2022/09/23 13:08:50;;;;;;;0.00;0.00;;;;;;;23.25;28.51;97948.50;8414168;28;20316;-78
2022/09/23 13:12:54;;;;;;;0.00;0.00;;;;;;;23.07;28.36;97945.78;8414967;28;20301;-79
2022/09/23 13:16:57;;;;;;;0.00;0.00;;;;;;;22.95;28.93;97945.13;8414905;28;20234;-79
2022/09/23 13:21:00;;;;;;;0.00;0.00;;;;;;;22.70;27.33;97937.91;8414899;28;20298;-78
2022/09/23 13:25:16;;;;;;;0.00;0.00;;;;;;;22.59;28.79;97928.34;8414647;28;20231;-77
2022/09/23 13:29:23;;;;;;;0.00;0.00;;;;;;;22.92;29.25;97923.47;8413782;28;20298;-77
2022/09/23 13:33:35;;;;;;;0.00;0.00;;;;;;;22.50;30.68;97916.03;8414431;28;20300;-78
2022/09/23 13:37:42;;;;;;;0.00;0.00;;;;;;;22.88;29.67;97909.72;8413914;28;20302;-76
2022/09/23 13:41:50;;;;;;;0.00;0.00;;;;;;;22.84;29.87;97914.47;8414271;28;20231;-78
2022/09/23 13:45:55;;;;;;;0.00;0.00;;;;;;;23.20;30.10;97903.19;8384020;28;20237;-78
2022/09/23 13:50:00;;;;;;;0.00;0.00;;;;;;;22.01;29.58;97901.16;8413553;28;20238;-77
2022/09/23 13:54:05;;;;;;;0.00;0.00;;;;;;;22.74;28.75;97902.31;8413510;28;20533;-78
2022/09/23 13:58:19;;;;;;;0.00;0.00;;;;;;;22.63;28.37;97900.69;8414097;28;20244;-77
2022/09/23 14:02:24;;;;;;;0.00;0.00;;;;;;;22.67;28.95;97907.34;8413796;28;20425;-78
2022/09/23 14:06:29;;;;;;;0.00;0.00;;;;;;;22.64;27.42;97897.09;8413555;28;20237;-77
2022/09/23 14:10:38;;;;;;;0.00;0.00;;;;;;;22.84;29.27;97893.34;8413830;28;20247;-78
2022/09/23 14:14:45;;;;;;;0.00;0.00;;;;;;;23.13;28.20;97886.28;8411878;28;20397;-78
2022/09/23 14:18:51;;;;;;;0.00;0.00;;;;;;;22.99;28.24;97891.03;8411965;28;20234;-78
2022/09/23 14:23:09;;;;;;;0.00;0.00;;;;;;;22.29;28.54;97882.75;8412921;28;20388;-79
2022/09/23 14:27:15;;;;;;;0.00;0.00;;;;;;;22.58;28.94;97881.81;8413233;28;20246;-78
2022/09/23 14:31:19;;;;;;;0.00;0.00;;;;;;;22.51;29.18;97878.13;8413155;28;20236;-79
2022/09/23 14:35:26;;;;;;;0.00;0.00;;;;;;;22.71;29.08;97876.22;8412364;28;20553;-77
2022/09/23 14:39:29;;;;;;;0.00;0.00;;;;;;;22.98;29.34;97878.00;8412013;28;20230;-78
2022/09/23 14:43:32;;;;;;;0.00;0.00;;;;;;;;;;8412208;28;20230;-79
2022/09/23 14:47:37;;;;;;;0.00;0.00;;;;;;;22.90;28.95;97867.34;8411592;28;20249;-76
2022/09/23 14:51:46;;;;;;;0.00;0.00;;;;;;;22.80;29.67;97864.78;8411698;28;20254;-78
2022/09/23 14:55:51;;;;;;;0.00;0.00;;;;;;;22.65;30.16;97865.25;8377765;28;20243;-77
2022/09/23 14:59:56;;;;;;;0.00;0.00;;;;;;;22.68;30.90;97861.50;8387731;28;20234;-80
2022/09/23 15:04:10;;;;;;;0.00;0.00;;;;;;;22.33;29.60;97847.25;8411503;28;20564;-80
2022/09/23 15:08:15;;;;;;;0.00;0.00;;;;;;;22.01;31.15;97853.69;8411444;28;20241;-79
2022/09/23 15:12:21;;;;;;;0.00;0.00;;;;;;;21.98;31.50;97842.59;8411397;28;20407;-78
2022/09/23 15:16:25;;;;;;;0.00;0.00;;;;;;;21.76;31.27;97841.09;8411083;28;20537;-78
2022/09/23 15:20:30;;;;;;;0.00;0.00;;;;;;;21.62;31.37;97831.84;8416762;28;20248;-77
2022/09/23 15:24:40;;;;;;;0.00;0.00;;;;;;;21.70;31.34;97836.41;8417168;28;20234;-77
2022/09/23 15:28:43;;;;;;;0.00;0.00;;;;;;;21.36;32.37;97836.81;8416863;28;20233;-77
2022/09/23 15:32:47;;;;;;;0.00;0.00;;;;;;;21.34;32.19;97830.84;8417054;28;20525;-77
2022/09/23 15:36:51;;;;;;;0.00;0.00;;;;;;;21.21;32.33;97829.34;8400375;28;20223;-77
2022/09/23 15:40:54;;;;;;;0.00;0.00;;;;;;;21.31;33.14;97829.34;8417066;28;20505;-77
2022/09/23 15:44:59;;;;;;;0.00;0.00;;;;;;;21.14;33.15;97830.88;8417106;28;20219;-77
2022/09/23 15:49:03;;;;;;;0.00;0.00;;;;;;;21.07;33.27;97829.75;8416847;28;20237;-77
2022/09/23 15:53:09;;;;;;;0.00;0.00;;;;;;;20.96;33.89;97822.81;8417198;28;20230;-77
2022/09/23 15:57:11;;;;;;;0.00;0.00;;;;;;;20.83;34.29;97823.06;8405977;28;20230;-77
2022/09/23 16:01:17;;;;;;;0.00;0.00;;;;;;;20.50;33.74;97822.44;8416786;28;20226;-78
2022/09/23 16:05:23;;;;;;;0.00;0.00;;;;;;;20.43;34.47;97817.84;8416615;28;20237;-77
2022/09/23 16:09:30;;;;;;;0.00;0.00;;;;;;;20.22;34.48;97820.50;8416203;28;20430;-77
2022/09/23 16:13:33;;;;;;;0.00;0.00;;;;;;;20.18;35.27;97813.84;8416408;28;20237;-77
2022/09/23 16:17:36;;;;;;;0.00;0.00;;;;;;;20.00;35.10;97814.47;8415862;28;20235;-77
2022/09/23 16:21:40;;;;;;;0.00;0.00;;;;;;;19.95;35.44;97818.44;8415527;28;20231;-77
2022/09/23 16:25:44;;;;;;;0.00;0.00;;;;;;;19.74;36.02;97808.78;8415967;28;20232;-77
2022/09/23 16:29:47;;;;;;;0.00;0.00;;;;;;;19.50;36.20;97799.34;8414755;28;20231;-76
2022/09/23 16:33:51;;;;;;;0.00;0.00;;;;;;;19.37;36.35;97797.91;8415399;28;20251;-76
2022/09/23 16:37:54;;;;;;;0.00;0.00;;;;;;;19.43;37.39;97792.94;8415149;28;20275;-77
2022/09/23 16:41:59;;;;;;;0.00;0.00;;;;;;;19.38;39.02;97797.78;8415232;28;20235;-77
2022/09/23 16:46:01;;;;;;;0.00;0.00;;;;;;;19.25;40.34;97797.94;8414719;28;20272;-77
2022/09/23 16:50:05;;;;;;;0.00;0.00;;;;;;;19.15;39.99;97799.66;8415126;28;20242;-77
2022/09/23 16:54:09;;;;;;;0.00;0.00;;;;;;;19.06;39.96;97796.00;8415062;28;20227;-77
2022/09/23 16:58:14;;;;;;;0.00;0.00;;;;;;;18.97;40.42;97796.75;8414790;28;20234;-77
2022/09/23 17:06:42;;;;;;;0.00;0.00;;;;;;;18.82;41.32;97795.38;8396692;28;20293;-78
2022/09/23 17:10:46;;;;;;;0.00;0.00;;;;;;;18.70;42.61;97799.78;8413697;28;20235;-79
2022/09/23 17:14:51;;;;;;;0.00;0.00;;;;;;;18.65;42.77;97794.06;8414084;28;20528;-79
2022/09/23 17:18:55;;;;;;;0.00;0.00;;;;;;;18.53;43.96;97801.13;8413808;28;20274;-81
2022/09/23 17:22:58;;;;;;;0.00;0.00;;;;;;;18.43;45.69;97803.66;8413857;28;20238;-79
2022/09/23 17:27:00;;;;;;;0.00;0.00;;;;;;;18.34;46.35;97801.75;8414340;28;20443;-81
2022/09/23 17:31:06;;;;;;;0.00;0.00;;;;;;;18.26;48.08;97806.75;8412606;28;20568;-80
2022/09/23 17:35:10;;;;;;;0.00;0.00;;;;;;;18.13;47.75;97804.25;8413581;28;20518;-80
2022/09/23 17:39:12;;;;;;;0.00;0.00;;;;;;;17.95;48.82;97796.88;8413669;28;20231;-81
2022/09/23 17:43:16;;;;;;;0.00;0.00;;;;;;;17.92;49.66;97804.16;8413058;28;20261;-80
2022/09/23 17:47:20;;;;;;;0.00;0.00;;;;;;;17.88;49.62;97800.09;8413323;28;20235;-79
2022/09/23 17:51:24;;;;;;;0.00;0.00;;;;;;;17.78;50.32;97811.25;8413249;28;20239;-78
2022/09/23 17:55:26;;;;;;;0.00;0.00;;;;;;;17.71;50.20;97809.22;8413311;28;20227;-81
2022/09/23 17:59:29;;;;;;;0.00;0.00;;;;;;;17.58;51.37;97806.69;8413705;28;20262;-80
2022/09/23 18:03:33;;;;;;;0.00;0.00;;;;;;;17.58;51.09;97799.66;8413214;28;20231;-82
2022/09/23 18:07:36;;;;;;;0.00;0.00;;;;;;;17.37;52.24;97802.09;8413014;28;20238;-80
2022/09/23 18:11:41;;;;;;;0.00;0.00;;;;;;;17.25;51.88;97796.94;8412395;28;20304;-78
2022/09/23 18:15:44;;;;;;;0.00;0.00;;;;;;;17.26;51.58;97799.44;8412476;28;20230;-78
2022/09/23 18:19:49;;;;;;;0.00;0.00;;;;;;;17.26;51.38;97798.63;8379393;28;20530;-76
2022/09/23 18:23:51;;;;;;;0.00;0.00;;;;;;;17.16;52.19;97795.84;8396126;28;20509;-77
2022/09/23 18:27:54;;;;;;;0.00;0.00;;;;;;;17.03;51.27;97797.69;8412605;28;20231;-74
2022/09/23 18:31:57;;;;;;;0.00;0.00;;;;;;;17.00;51.61;97788.28;8412129;28;20237;-77
2022/09/23 18:36:02;;;;;;;0.00;0.00;;;;;;;16.99;51.89;97792.69;8412197;28;20233;-74
2022/09/23 18:40:07;;;;;;;0.10;0.10;;;;;;;16.88;52.28;97783.94;8412475;28;20234;-76
2022/09/23 18:44:16;;;;;;;0.00;0.00;;;;;;;16.76;52.65;97791.72;8412522;28;20282;-76
2022/09/23 18:52:41;;;;;;;0.00;0.00;;;;;;;16.70;52.49;97796.56;8414643;28;20231;-77
2022/09/23 18:56:45;;;;;;;0.00;0.00;;;;;;;16.55;52.66;97803.72;8418727;28;20241;-77
2022/09/23 19:00:49;;;;;;;0.00;0.00;;;;;;;16.44;53.23;97801.84;8384641;28;20561;-76
2022/09/23 19:04:52;;;;;;;0.00;0.00;;;;;;;16.41;52.85;97794.22;8384581;28;20304;-77
2022/09/23 19:08:56;;;;;;;0.00;0.00;;;;;;;16.45;53.37;97795.69;8384666;28;20235;-76
2022/09/23 19:12:59;;;;;;;0.00;0.00;;;;;;;17.24;62.18;97796.09;8384821;28;20246;-75
2022/09/23 19:17:04;;;;;;;0.00;0.00;;;;;;;17.11;52.81;97795.34;8384377;28;20238;-77
2022/09/23 19:21:11;;;;;;;0.00;0.00;;;;;;;16.65;53.08;97791.66;8384247;28;20235;-78
2022/09/23 19:25:16;;;;;;;0.00;0.00;;;;;;;16.58;52.64;97796.50;8384179;28;20274;-78
2022/09/23 19:29:20;;;;;;;0.00;0.00;;;;;;;16.39;52.92;97801.34;8384061;28;20250;-77
2022/09/23 19:33:23;;;;;;;0.00;0.00;;;;;;;16.16;53.77;97797.72;8383341;28;20564;-78
2022/09/23 19:37:27;;;;;;;0.00;0.00;;;;;;;16.17;53.60;97802.84;8383896;28;20227;-77
2022/09/23 19:41:34;;;;;;;0.00;0.00;;;;;;;16.20;53.14;97801.78;8397914;28;20253;-78